Imperial County Airport
KIPL : now visible

Airfield :











YOU CAN JOIN US ON...

 
LOGIN :

Register | Disclaimer

   EN    FR    IT 

 









Legend :    VFR   Marginal VFR   IFR   Intensive IFR   Very Intensive IFR
Visi :
Ceiling :
>= 8 km
>= 3000ft
5 to 8 km
1000 to 3000 ft
1500m to 5 km
500 to 1000 ft
800 to 1500m
200 to 500 ft
< 800m
< 200 ft
Symbols :   Thunderstorms  Fog  Heavy snow  Heavy precipitations  Wind > 20 kt






- Airport Elevation : -54 ft


KIPL - Imperial County

CURRENT METAR :
  • 110653Z AUTO 07004KT 10SM 32/16 A2974 RMK AO2 SLP072 T03220161 $

EXPIRED METARs :
  • 110553Z AUTO 06007KT 7SM CLR 34/13 A2974 RMK AO2 SLP070 T03440128 10439 20328 51017
  • 110453Z AUTO 17003KT 6SM HZ FEW037 36/12 A2973 RMK AO2 SLP067 T03610117

TAF KIPL
Valid from the 11 at 06:00 until the 12 at 06:00 UTC


110520Z 1106/1206 26008KT P6SM SKC
FM111200 14006KT P6SM SKC
FM112300 24008KT P6SM SKC
KZLA FIR / North America



MET'MAP, your aeronautical weather chart ! - Copyright ORBIFLY December 2007 - Disclaimer

ORBIFLY MET'MAP TEAM :

Programming & Development : Alexandra Zaïnal
Concept & original design : Baudouin d'Aumeries
Assistance for programming : Marc-Olivier Méhu
Technical & hardware support : Manuel Goepfert

Contact : metmap@orbifly.com




SOURCES & CREDITS :

   NOAA       Earth
Advisory